Time;durP1;ratioP1;P1;durP2;ratioP2;P2;SDS_P1;SDS_P2;PMS_P1;PMS_P2;Temp;Humidity;BMP_temperature;BMP_pressure;BME280_temperature;BME280_humidity;BME280_pressure;Samples;Min_cycle;Max_cycle;Signal;HPM_P1;HPM_P2
2021/12/03 00:00:38;;;;;;;2.88;1.10;;;4.90;90.00;;;;;;5135693;27;20493;-74
2021/12/03 00:03:05;;;;;;;0.57;0.57;;;4.90;90.00;;;;;;5126397;27;20038;-74
2021/12/03 00:05:31;;;;;;;0.77;0.77;;;4.90;89.90;;;;;;5135570;27;20117;-74
2021/12/03 00:07:56;;;;;;;0.52;0.52;;;4.90;89.70;;;;;;5122058;27;20114;-73
2021/12/03 00:10:25;;;;;;;2.85;0.98;;;4.90;89.60;;;;;;5134520;27;20136;-74
2021/12/03 00:12:51;;;;;;;1.85;0.43;;;4.80;89.60;;;;;;5135569;27;20033;-73
2021/12/03 00:15:18;;;;;;;0.50;0.50;;;4.80;89.80;;;;;;5135286;27;20023;-73
2021/12/03 00:17:44;;;;;;;3.38;1.38;;;4.80;89.80;;;;;;5134991;27;20039;-73
2021/12/03 00:20:13;;;;;;;4.55;2.58;;;4.80;89.80;;;;;;5135020;27;20114;-74
2021/12/03 00:22:41;;;;;;;0.90;0.85;;;4.70;89.80;;;;;;5135357;27;20037;-73
2021/12/03 00:25:07;;;;;;;2.33;0.80;;;4.70;89.90;;;;;;5124698;27;20031;-73
2021/12/03 00:27:33;;;;;;;3.22;1.73;;;4.70;90.00;;;;;;5132193;27;20035;-74
2021/12/03 00:29:58;;;;;;;0.70;0.70;;;4.70;90.00;;;;;;5130462;27;20027;-74
2021/12/03 00:32:24;;;;;;;0.77;0.77;;;4.70;90.00;;;;;;5134249;27;20055;-73
2021/12/03 00:34:50;;;;;;;12.43;1.52;;;4.70;90.10;;;;;;5135205;27;20026;-73
2021/12/03 00:37:15;;;;;;;2.63;0.80;;;4.60;90.10;;;;;;5133032;27;20038;-74
2021/12/03 00:39:41;;;;;;;3.58;1.05;;;4.60;90.10;;;;;;5123691;27;20078;-73
2021/12/03 00:42:08;;;;;;;4.05;1.15;;;4.60;90.10;;;;;;5131383;27;20082;-73
2021/12/03 00:44:33;;;;;;;2.15;1.10;;;4.60;90.20;;;;;;5134126;27;20051;-73
2021/12/03 00:46:59;;;;;;;1.60;0.75;;;4.50;90.20;;;;;;5134479;27;20038;-73
2021/12/03 00:49:26;;;;;;;3.83;2.42;;;4.50;90.30;;;;;;5134747;27;20062;-74
2021/12/03 00:51:52;;;;;;;1.83;1.05;;;4.50;90.50;;;;;;5133695;27;20424;-73
2021/12/03 00:54:18;;;;;;;0.60;0.60;;;4.50;90.50;;;;;;5134858;27;20035;-73
2021/12/03 00:56:44;;;;;;;1.60;1.00;;;4.40;90.60;;;;;;5134571;27;20103;-73
2021/12/03 00:59:10;;;;;;;0.80;0.80;;;4.40;90.60;;;;;;5133969;27;20015;-73
2021/12/03 01:01:36;;;;;;;2.95;0.90;;;4.50;90.70;;;;;;5114157;27;20134;-73
2021/12/03 01:04:02;;;;;;;0.70;0.70;;;4.50;90.70;;;;;;5123041;27;20467;-73
2021/12/03 01:06:28;;;;;;;1.00;0.80;;;4.40;90.80;;;;;;5133122;27;20100;-73
2021/12/03 01:08:53;;;;;;;3.65;1.42;;;4.40;91.10;;;;;;5134276;27;20023;-74
2021/12/03 01:11:20;;;;;;;1.23;0.93;;;4.40;90.90;;;;;;5134066;27;20027;-74
2021/12/03 01:13:46;;;;;;;1.15;1.02;;;4.40;91.00;;;;;;5133651;27;20030;-74
2021/12/03 01:16:14;;;;;;;2.55;1.17;;;4.50;91.10;;;;;;5133801;27;20504;-73
2021/12/03 01:18:40;;;;;;;1.67;0.70;;;4.40;91.10;;;;;;5134181;27;20425;-73
2021/12/03 01:21:07;;;;;;;1.77;0.70;;;4.40;91.10;;;;;;5125509;27;20028;-74
2021/12/03 01:23:33;;;;;;;1.38;1.15;;;4.50;91.20;;;;;;5134302;27;20088;-73
2021/12/03 01:25:59;;;;;;;2.55;1.10;;;4.50;91.20;;;;;;5118087;27;20447;-73
2021/12/03 01:28:28;;;;;;;4.28;1.27;;;4.50;91.20;;;;;;5124378;27;20019;-73
2021/12/03 01:30:56;;;;;;;2.13;0.90;;;4.50;91.30;;;;;;5128352;27;20019;-74
2021/12/03 01:33:22;;;;;;;3.72;1.40;;;4.50;91.30;;;;;;5133686;27;20030;-74
2021/12/03 01:35:48;;;;;;;4.88;1.30;;;4.50;91.40;;;;;;5132625;27;20027;-74
2021/12/03 01:38:13;;;;;;;1.88;0.98;;;4.50;91.50;;;;;;5133496;27;20031;-73
2021/12/03 01:40:41;;;;;;;2.42;0.98;;;4.50;91.40;;;;;;5133052;27;20032;-73
2021/12/03 01:43:08;;;;;;;3.00;1.50;;;4.60;91.30;;;;;;5133562;27;20039;-73
2021/12/03 01:45:37;;;;;;;0.73;0.73;;;4.70;91.30;;;;;;5133604;27;20074;-74
2021/12/03 01:48:04;;;;;;;0.40;0.40;;;4.80;91.30;;;;;;5132194;27;20062;-73
2021/12/03 01:50:43;;;;;;;1.85;1.75;;;4.80;91.10;;;;;;5133550;27;20041;-73
2021/12/03 01:53:12;;;;;;;3.67;1.42;;;4.90;90.90;;;;;;5133215;27;20482;-73
2021/12/03 01:55:38;;;;;;;1.67;0.90;;;4.90;90.70;;;;;;5133090;27;20035;-73
2021/12/03 01:58:05;;;;;;;0.73;0.50;;;4.90;90.70;;;;;;5133401;27;20027;-73
2021/12/03 02:00:36;;;;;;;0.52;0.52;;;5.00;90.60;;;;;;5133497;27;20027;-73
2021/12/03 02:03:04;;;;;;;2.03;0.95;;;5.00;90.60;;;;;;5124242;27;20470;-74
2021/12/03 02:05:30;;;;;;;0.93;0.68;;;5.00;90.50;;;;;;5133680;28;20035;-73
2021/12/03 02:07:56;;;;;;;1.17;0.85;;;5.00;90.50;;;;;;5133227;28;20462;-73
2021/12/03 02:10:23;;;;;;;0.55;0.55;;;5.00;90.40;;;;;;5132390;28;20039;-74
2021/12/03 02:12:50;;;;;;;0.40;0.40;;;4.90;90.40;;;;;;5133573;28;20027;-73
2021/12/03 02:15:16;;;;;;;1.08;1.00;;;4.90;90.50;;;;;;5133109;28;20035;-73
2021/12/03 02:17:42;;;;;;;1.95;1.23;;;4.90;90.60;;;;;;5132768;28;20019;-73
2021/12/03 02:20:12;;;;;;;0.90;0.70;;;4.90;90.70;;;;;;5133039;28;20496;-74
2021/12/03 02:22:39;;;;;;;1.00;0.88;;;4.90;90.80;;;;;;5133645;28;20054;-73
2021/12/03 02:25:08;;;;;;;0.60;0.60;;;4.80;90.90;;;;;;5129536;28;20031;-74
2021/12/03 02:27:33;;;;;;;0.50;0.50;;;4.70;91.00;;;;;;5130476;28;20123;-74
2021/12/03 02:29:59;;;;;;;0.57;0.57;;;4.80;91.00;;;;;;5127203;28;20061;-76
2021/12/03 02:32:25;;;;;;;2.05;0.95;;;4.80;91.10;;;;;;5133335;28;20028;-75
2021/12/03 02:34:51;;;;;;;0.98;0.98;;;4.80;91.10;;;;;;5132891;28;20112;-73
2021/12/03 02:37:17;;;;;;;1.50;0.95;;;4.80;91.00;;;;;;5132427;28;20035;-73
2021/12/03 02:39:42;;;;;;;2.20;0.77;;;4.90;91.00;;;;;;5133203;28;20019;-73
2021/12/03 02:42:08;;;;;;;1.02;0.80;;;4.90;90.90;;;;;;5133700;28;20062;-73
2021/12/03 02:44:35;;;;;;;0.63;0.60;;;4.90;90.80;;;;;;5131895;28;20047;-73
2021/12/03 02:47:01;;;;;;;0.57;0.57;;;5.00;90.80;;;;;;5133028;28;20071;-74
2021/12/03 02:49:26;;;;;;;0.90;0.70;;;5.00;90.90;;;;;;5117246;28;20429;-73
2021/12/03 02:51:52;;;;;;;1.67;0.90;;;4.90;90.80;;;;;;5125018;28;20031;-73
2021/12/03 02:54:18;;;;;;;3.22;0.63;;;4.90;90.80;;;;;;5132520;28;20448;-73
2021/12/03 02:56:43;;;;;;;0.95;0.50;;;4.90;90.80;;;;;;5127965;28;20038;-74
2021/12/03 02:59:09;;;;;;;0.70;0.70;;;4.90;90.80;;;;;;5125334;27;20106;-73
2021/12/03 03:01:35;;;;;;;0.63;0.63;;;4.90;90.80;;;;;;5134154;27;20371;-73
2021/12/03 03:04:00;;;;;;;0.70;0.70;;;4.90;90.80;;;;;;5129664;27;20034;-73
2021/12/03 03:06:26;;;;;;;1.05;0.95;;;5.00;90.80;;;;;;5135453;27;20474;-73
2021/12/03 03:08:52;;;;;;;1.15;0.90;;;5.00;90.80;;;;;;5136833;27;20030;-73
2021/12/03 03:11:18;;;;;;;1.40;0.93;;;4.90;90.80;;;;;;5136269;27;20062;-73
2021/12/03 03:13:44;;;;;;;1.20;1.10;;;5.00;90.80;;;;;;5135683;27;20042;-73
2021/12/03 03:16:10;;;;;;;0.40;0.40;;;4.90;90.90;;;;;;5136451;27;20032;-74
2021/12/03 03:18:36;;;;;;;0.57;0.57;;;4.90;90.90;;;;;;5136600;27;20035;-73
2021/12/03 03:21:04;;;;;;;0.45;0.43;;;4.90;91.00;;;;;;5127614;27;20027;-73
2021/12/03 03:23:32;;;;;;;9.82;0.77;;;4.90;90.90;;;;;;5135913;27;20035;-73
2021/12/03 03:25:58;;;;;;;7.25;1.58;;;4.90;90.90;;;;;;5136014;27;20046;-73
2021/12/03 03:28:24;;;;;;;0.63;0.63;;;4.90;90.90;;;;;;5132743;27;20035;-73
2021/12/03 03:30:54;;;;;;;2.97;0.90;;;4.90;90.90;;;;;;5118517;27;20123;-73
2021/12/03 03:33:20;;;;;;;2.95;0.98;;;4.90;90.90;;;;;;5123199;27;20034;-74
2021/12/03 03:35:46;;;;;;;0.90;0.90;;;4.90;91.20;;;;;;5129314;27;20034;-73
2021/12/03 03:38:13;;;;;;;0.65;0.65;;;4.90;90.90;;;;;;5132411;27;20027;-73
2021/12/03 03:40:41;;;;;;;0.73;0.70;;;4.90;90.90;;;;;;5127365;27;20027;-74
2021/12/03 03:43:07;;;;;;;0.60;0.60;;;4.90;90.90;;;;;;5135907;27;20122;-73
2021/12/03 03:45:34;;;;;;;1.27;1.05;;;4.90;90.90;;;;;;5133579;27;20505;-73
2021/12/03 03:48:01;;;;;;;0.45;0.45;;;4.90;90.90;;;;;;5130308;27;20034;-73
2021/12/03 03:50:28;;;;;;;0.98;0.98;;;4.90;90.90;;;;;;5135647;27;20023;-73
2021/12/03 03:52:55;;;;;;;0.88;0.75;;;4.90;90.80;;;;;;5122832;27;20027;-74
2021/12/03 03:55:22;;;;;;;2.22;1.02;;;4.90;90.80;;;;;;5124693;27;20027;-74
2021/12/03 03:57:51;;;;;;;1.33;0.93;;;4.90;90.80;;;;;;5135499;27;20533;-73
2021/12/03 04:00:23;;;;;;;0.95;0.95;;;4.90;90.80;;;;;;5135833;27;20035;-73
2021/12/03 04:02:49;;;;;;;2.40;1.33;;;4.90;90.90;;;;;;5133058;27;20126;-73
2021/12/03 04:05:15;;;;;;;2.33;1.58;;;4.80;90.90;;;;;;5135247;27;20423;-73
2021/12/03 04:07:40;;;;;;;2.10;1.52;;;4.90;90.90;;;;;;5135072;27;20027;-73
2021/12/03 04:10:08;;;;;;;0.93;0.93;;;4.90;91.00;;;;;;5134447;27;20034;-73
2021/12/03 04:12:34;;;;;;;0.77;0.77;;;4.90;91.00;;;;;;5134602;27;20035;-73
2021/12/03 04:15:00;;;;;;;2.13;1.30;;;4.90;91.00;;;;;;5135037;27;20065;-73
2021/12/03 04:17:26;;;;;;;2.28;1.65;;;4.90;91.00;;;;;;5134785;27;20055;-74
2021/12/03 04:19:52;;;;;;;2.83;1.85;;;4.90;91.00;;;;;;5135061;27;20035;-73
2021/12/03 04:22:23;;;;;;;2.63;1.20;;;4.90;91.00;;;;;;5135340;27;20031;-73
2021/12/03 04:24:50;;;;;;;3.03;2.35;;;4.90;91.00;;;;;;5134882;27;20509;-73
2021/12/03 04:27:16;;;;;;;2.00;1.77;;;4.90;91.00;;;;;;5133371;27;20080;-74
2021/12/03 04:29:42;;;;;;;3.67;2.45;;;4.90;91.00;;;;;;5133986;27;20744;-74
2021/12/03 04:32:08;;;;;;;3.70;2.25;;;4.90;91.00;;;;;;5135365;27;20102;-73
2021/12/03 04:34:34;;;;;;;8.35;1.85;;;4.90;91.00;;;;;;5134836;27;20378;-73
2021/12/03 04:37:00;;;;;;;5.20;2.17;;;4.90;91.00;;;;;;5134328;27;20046;-73
2021/12/03 04:39:26;;;;;;;1.27;1.17;;;4.90;91.00;;;;;;5131399;27;20023;-73
2021/12/03 04:41:52;;;;;;;4.72;2.60;;;4.90;91.00;;;;;;5125089;27;20058;-73
2021/12/03 04:44:17;;;;;;;4.38;3.13;;;4.90;91.10;;;;;;5133864;27;20047;-73
2021/12/03 04:46:43;;;;;;;6.32;3.42;;;4.90;91.10;;;;;;5134988;27;20043;-73
2021/12/03 04:49:09;;;;;;;14.27;4.50;;;4.90;91.10;;;;;;5134395;27;20053;-73
2021/12/03 04:51:35;;;;;;;5.95;3.25;;;4.90;91.10;;;;;;5133831;27;20059;-73
2021/12/03 04:54:01;;;;;;;4.60;2.70;;;4.90;91.20;;;;;;5133872;27;20031;-74
2021/12/03 04:56:26;;;;;;;4.68;2.42;;;4.90;91.20;;;;;;5131665;27;20050;-73
2021/12/03 04:58:52;;;;;;;3.95;2.45;;;4.80;91.20;;;;;;5133036;27;20034;-74
2021/12/03 05:01:18;;;;;;;6.60;4.15;;;4.90;91.20;;;;;;5126147;27;20122;-73
2021/12/03 05:03:43;;;;;;;1.90;1.73;;;4.80;91.30;;;;;;5133455;27;20027;-74
2021/12/03 05:06:14;;;;;;;4.22;2.72;;;4.80;91.30;;;;;;5132571;27;20043;-74
2021/12/03 05:08:40;;;;;;;2.40;1.88;;;4.80;91.30;;;;;;5130902;27;20447;-74
2021/12/03 05:11:05;;;;;;;9.75;3.92;;;4.80;91.40;;;;;;5126211;27;20062;-74
2021/12/03 05:13:33;;;;;;;5.60;3.65;;;4.80;91.40;;;;;;5133368;27;20039;-74
2021/12/03 05:15:59;;;;;;;5.97;3.78;;;4.80;91.40;;;;;;5134042;27;20043;-75
2021/12/03 05:18:28;;;;;;;5.95;3.03;;;4.80;91.40;;;;;;5133230;27;20030;-74
2021/12/03 05:20:56;;;;;;;9.50;1.95;;;4.80;91.40;;;;;;5130869;27;20027;-73
2021/12/03 05:23:23;;;;;;;11.48;4.35;;;4.80;91.40;;;;;;5132681;27;20038;-75
2021/12/03 05:25:49;;;;;;;7.63;4.20;;;4.80;91.40;;;;;;5132330;27;20126;-73
2021/12/03 05:28:16;;;;;;;2.95;2.65;;;4.80;91.40;;;;;;5133624;27;20027;-74
2021/12/03 05:30:42;;;;;;;5.45;2.78;;;4.80;91.40;;;;;;5132776;27;20136;-74
2021/12/03 05:33:09;;;;;;;4.38;2.88;;;4.80;91.40;;;;;;5131910;27;20038;-70
2021/12/03 05:35:36;;;;;;;1.23;1.13;;;4.80;91.40;;;;;;5130165;27;20035;-73
2021/12/03 05:38:02;;;;;;;1.83;1.73;;;4.80;91.40;;;;;;5132913;27;20382;-72
2021/12/03 05:40:28;;;;;;;5.80;3.47;;;4.80;91.40;;;;;;5133294;27;20074;-73
2021/12/03 05:42:55;;;;;;;4.90;2.53;;;4.90;91.40;;;;;;5133418;27;20027;-72
2021/12/03 05:45:27;;;;;;;4.90;3.58;;;4.90;91.40;;;;;;5133532;27;20082;-73
2021/12/03 05:47:55;;;;;;;4.93;3.27;;;4.90;91.40;;;;;;5130220;27;20059;-73
2021/12/03 05:50:20;;;;;;;1.88;1.38;;;4.90;91.40;;;;;;5133203;27;20091;-73
2021/12/03 05:52:48;;;;;;;3.15;2.05;;;4.90;91.40;;;;;;5132831;27;20027;-72
2021/12/03 05:55:14;;;;;;;5.25;2.72;;;4.90;91.40;;;;;;5132355;27;20031;-72
2021/12/03 05:57:41;;;;;;;4.93;3.00;;;4.90;91.30;;;;;;5132989;27;20024;-72
2021/12/03 06:00:12;;;;;;;5.25;3.08;;;4.90;91.40;;;;;;5133260;27;20031;-73
2021/12/03 06:02:38;;;;;;;4.57;3.08;;;4.90;91.30;;;;;;5132913;27;20122;-73
2021/12/03 06:05:04;;;;;;;4.03;2.58;;;4.90;91.30;;;;;;5133169;27;20103;-72
2021/12/03 06:07:30;;;;;;;5.65;3.00;;;4.90;91.40;;;;;;5131729;28;20482;-72
2021/12/03 06:09:55;;;;;;;6.95;3.92;;;4.90;91.40;;;;;;5132561;28;20019;-72
2021/12/03 06:12:21;;;;;;;5.28;3.38;;;4.90;91.40;;;;;;5131621;28;20065;-72
2021/12/03 06:14:46;;;;;;;6.22;4.18;;;4.90;91.40;;;;;;5132960;28;20016;-73
2021/12/03 06:17:13;;;;;;;5.25;3.58;;;4.90;91.40;;;;;;5132362;28;20100;-72
2021/12/03 06:19:43;;;;;;;11.75;4.40;;;4.80;91.40;;;;;;5132234;28;20038;-73
2021/12/03 06:22:09;;;;;;;2.97;2.13;;;4.80;91.50;;;;;;5131191;28;20034;-72
2021/12/03 06:24:37;;;;;;;7.07;4.15;;;4.80;91.50;;;;;;5131566;28;20076;-72
2021/12/03 06:27:03;;;;;;;7.97;4.10;;;4.80;91.50;;;;;;5131787;28;20104;-72
2021/12/03 06:29:29;;;;;;;13.43;5.15;;;4.80;91.50;;;;;;5129413;28;20088;-72
2021/12/03 06:31:54;;;;;;;11.02;4.78;;;4.70;91.50;;;;;;5129061;28;20118;-71
2021/12/03 06:34:20;;;;;;;7.18;4.55;;;4.70;91.60;;;;;;5131087;27;20055;-72
2021/12/03 06:36:46;;;;;;;4.93;3.55;;;4.70;91.60;;;;;;5134719;27;20531;-72
2021/12/03 06:39:13;;;;;;;13.52;3.15;;;4.70;91.70;;;;;;5133689;27;20105;-71
2021/12/03 06:41:39;;;;;;;7.80;4.60;;;4.70;91.70;;;;;;5134271;27;20035;-72
2021/12/03 06:44:05;;;;;;;5.45;2.72;;;4.70;91.80;;;;;;5133429;27;20084;-72
2021/12/03 06:46:32;;;;;;;4.65;3.35;;;4.60;91.80;;;;;;5134301;27;20049;-72
2021/12/03 06:48:58;;;;;;;8.15;4.93;;;4.60;91.90;;;;;;5134466;27;20027;-71
2021/12/03 06:51:24;;;;;;;8.25;4.47;;;4.70;91.90;;;;;;5133490;27;20065;-72
2021/12/03 06:54:06;;;;;;;11.30;4.65;;;4.60;91.90;;;;;;5134512;27;20039;-74
2021/12/03 06:56:33;;;;;;;7.40;4.25;;;4.60;92.00;;;;;;5134315;27;20478;-72
2021/12/03 06:58:59;;;;;;;11.73;5.05;;;4.60;92.20;;;;;;5134625;27;20019;-72
2021/12/03 07:01:25;;;;;;;9.57;5.70;;;4.60;92.30;;;;;;5132473;27;20084;-73
2021/12/03 07:03:51;;;;;;;11.55;4.75;;;4.50;92.40;;;;;;5133983;27;20023;-72
2021/12/03 07:06:17;;;;;;;12.27;5.47;;;4.50;92.50;;;;;;5133073;27;20490;-71
2021/12/03 07:08:43;;;;;;;5.60;4.47;;;4.50;92.60;;;;;;5135187;27;20023;-72
2021/12/03 07:11:09;;;;;;;12.73;5.60;;;4.60;92.70;;;;;;5134818;27;20367;-73
2021/12/03 07:13:34;;;;;;;9.15;4.47;;;4.50;92.70;;;;;;5135877;27;20110;-74
2021/12/03 07:16:02;;;;;;;6.85;3.95;;;4.60;92.70;;;;;;5131279;27;20031;-72
2021/12/03 07:18:27;;;;;;;10.30;3.90;;;4.50;92.70;;;;;;5134574;27;20027;-73
2021/12/03 07:20:53;;;;;;;6.82;3.70;;;4.60;92.80;;;;;;5135735;27;20092;-73
2021/12/03 07:23:19;;;;;;;9.77;4.72;;;4.60;92.70;;;;;;5136095;27;20113;-73
2021/12/03 07:25:44;;;;;;;9.32;4.20;;;4.70;92.80;;;;;;5134678;27;20035;-73
2021/12/03 07:28:11;;;;;;;6.85;3.78;;;4.60;92.70;;;;;;5136434;27;20023;-73
2021/12/03 07:30:36;;;;;;;7.05;4.10;;;4.70;92.80;;;;;;5136019;27;20038;-73
2021/12/03 07:33:02;;;;;;;4.20;2.80;;;4.70;92.70;;;;;;5135463;27;20030;-72
2021/12/03 07:35:28;;;;;;;3.42;2.50;;;4.70;92.70;;;;;;5135741;27;20096;-73
2021/12/03 07:37:53;;;;;;;5.40;3.28;;;4.70;92.70;;;;;;5135652;27;20148;-73
2021/12/03 07:40:19;;;;;;;5.05;3.28;;;4.80;92.70;;;;;;5134297;27;20031;-73
2021/12/03 07:42:45;;;;;;;5.03;2.97;;;4.80;92.70;;;;;;5134575;27;20038;-73
2021/12/03 07:45:14;;;;;;;8.98;3.47;;;4.80;92.60;;;;;;5131709;27;20043;-72
2021/12/03 07:47:39;;;;;;;4.65;2.88;;;4.80;92.70;;;;;;5132473;27;20046;-72
2021/12/03 07:50:07;;;;;;;5.97;3.03;;;4.80;92.70;;;;;;5134009;27;20020;-72
2021/12/03 07:52:34;;;;;;;11.95;4.10;;;4.80;92.70;;;;;;5134898;27;20023;-71
2021/12/03 07:55:00;;;;;;;5.13;3.22;;;4.80;92.70;;;;;;5134074;27;20095;-75
2021/12/03 07:57:26;;;;;;;11.82;3.75;;;4.80;92.70;;;;;;5134581;27;20027;-72
2021/12/03 07:59:51;;;;;;;4.25;3.00;;;4.80;92.80;;;;;;5134328;27;20034;-77
2021/12/03 08:02:20;;;;;;;6.50;2.85;;;4.80;92.80;;;;;;5132629;27;20023;-72
2021/12/03 08:04:45;;;;;;;6.20;2.47;;;4.70;92.90;;;;;;5134068;27;20023;-73
2021/12/03 08:07:12;;;;;;;3.03;1.85;;;4.70;92.90;;;;;;5133847;27;20062;-72
2021/12/03 08:09:37;;;;;;;5.72;3.40;;;4.80;93.00;;;;;;5132330;27;20031;-72
2021/12/03 08:12:05;;;;;;;8.27;3.33;;;4.80;93.00;;;;;;5135045;27;20027;-72
2021/12/03 08:14:31;;;;;;;6.65;3.10;;;4.80;93.00;;;;;;5134111;27;20031;-72
2021/12/03 08:16:57;;;;;;;4.47;2.97;;;4.80;93.00;;;;;;5134923;27;20489;-72
2021/12/03 08:19:22;;;;;;;5.78;2.47;;;4.80;93.10;;;;;;5133544;27;20534;-72
2021/12/03 08:21:48;;;;;;;7.15;2.97;;;4.80;93.10;;;;;;5133676;27;20601;-72
2021/12/03 08:24:14;;;;;;;4.50;1.90;;;4.80;93.10;;;;;;5134462;27;20035;-72
2021/12/03 08:26:39;;;;;;;6.53;2.63;;;4.80;93.10;;;;;;5132508;27;20513;-73
2021/12/03 08:29:06;;;;;;;7.45;3.50;;;4.90;93.10;;;;;;5131588;27;20068;-72
2021/12/03 08:31:32;;;;;;;20.30;1.80;;;4.90;93.10;;;;;;5131582;27;20504;-72
2021/12/03 08:33:57;;;;;;;5.50;2.45;;;4.90;93.20;;;;;;5132647;27;20102;-73
2021/12/03 08:36:23;;;;;;;1.33;1.08;;;4.90;93.20;;;;;;5130593;27;20575;-72
2021/12/03 08:38:49;;;;;;;4.78;2.30;;;4.90;93.20;;;;;;5133573;27;20683;-73
2021/12/03 08:41:18;;;;;;;9.77;3.08;;;4.90;93.20;;;;;;5132451;27;20113;-73
2021/12/03 08:43:48;;;;;;;6.32;2.30;;;4.90;93.20;;;;;;5131850;27;20051;-72
2021/12/03 08:46:38;;;;;;;9.10;2.28;;;4.90;93.20;;;;;;5134654;27;20042;-76
2021/12/03 08:49:15;;;;;;;8.00;2.97;;;5.00;93.30;;;;;;5128478;27;20031;-73
2021/12/03 08:56:52;;;;;;;3.78;2.40;;;4.90;93.40;;;;;;5123511;27;20505;-73
2021/12/03 08:59:18;;;;;;;9.98;2.85;;;4.90;93.50;;;;;;5129699;27;20047;-73
2021/12/03 09:01:44;;;;;;;4.82;2.70;;;4.90;93.60;;;;;;5133726;27;20031;-73
2021/12/03 09:04:13;;;;;;;9.32;2.72;;;4.90;93.60;;;;;;5132017;27;20034;-73
2021/12/03 09:06:38;;;;;;;5.15;2.15;;;4.90;93.70;;;;;;5132274;27;20043;-73
2021/12/03 09:09:07;;;;;;;6.35;2.08;;;4.90;93.70;;;;;;5132865;27;20031;-73
2021/12/03 09:11:37;;;;;;;5.85;3.00;;;5.00;93.80;;;;;;5132541;27;20095;-73
2021/12/03 09:14:11;;;;;;;5.05;2.35;;;5.00;93.80;;;;;;5133306;27;20518;-74
2021/12/03 09:16:37;;;;;;;4.85;2.70;;;4.90;93.80;;;;;;5133578;27;20042;-73
2021/12/03 09:19:06;;;;;;;12.30;4.05;;;5.00;93.90;;;;;;5132428;27;20015;-73
2021/12/03 09:21:34;;;;;;;5.53;2.40;;;5.00;93.90;;;;;;5133850;27;20030;-73
2021/12/03 09:26:29;;;;;;;4.03;2.50;;;5.00;93.90;;;;;;5132905;27;20039;-73
2021/12/03 09:29:03;;;;;;;3.30;2.35;;;5.10;93.90;;;;;;5133961;27;20031;-73
2021/12/03 09:31:29;;;;;;;6.95;3.50;;;5.10;93.80;;;;;;5133876;27;20035;-72
2021/12/03 09:33:57;;;;;;;3.83;2.25;;;5.20;93.80;;;;;;5133311;27;20077;-73
2021/12/03 09:36:23;;;;;;;6.00;3.63;;;5.20;93.80;;;;;;5130669;27;20035;-74
2021/12/03 09:38:49;;;;;;;4.70;2.80;;;5.20;93.80;;;;;;5132004;27;20050;-73
2021/12/03 09:41:19;;;;;;;7.35;3.88;;;5.20;93.80;;;;;;5113898;27;20110;-73
2021/12/03 09:43:48;;;;;;;7.07;3.78;;;5.30;93.70;;;;;;5131336;27;20023;-72
2021/12/03 09:46:18;;;;;;;5.25;3.15;;;5.30;93.70;;;;;;5131176;27;20047;-72
2021/12/03 09:51:40;;;;;;;4.72;3.15;;;5.30;93.70;;;;;;5132987;27;20089;-72
2021/12/03 09:54:22;;;;;;;5.65;3.25;;;5.30;93.70;;;;;;5132373;27;20022;-72
2021/12/03 09:56:51;;;;;;;10.32;4.07;;;5.40;93.70;;;;;;5132858;27;20043;-72
2021/12/03 09:59:47;;;;;;;9.50;4.78;;;5.40;93.70;;;;;;5133641;27;20034;-72
2021/12/03 10:25:52;;;;;;;15.23;6.50;;;5.50;93.90;;;;;;5132668;28;20084;-72
2021/12/03 10:31:23;;;;;;;16.70;5.55;;;5.50;93.90;;;;;;5132494;28;20382;-72
2021/12/03 10:39:41;;;;;;;10.45;5.25;;;5.50;94.00;;;;;;5133153;28;20089;-72
2021/12/03 10:42:20;;;;;;;22.58;6.70;;;5.60;94.00;;;;;;5122860;28;20074;-72
2021/12/03 10:55:49;;;;;;;12.30;5.00;;;5.60;94.10;;;;;;5132154;28;20027;-72
2021/12/03 12:44:29;;;;;;;15.90;4.60;;;5.50;94.50;;;;;;5131551;27;20390;-75
2021/12/03 13:23:47;;;;;;;7.95;3.20;;;5.60;94.80;;;;;;5134079;27;20027;-74
2021/12/03 13:36:03;;;;;;;5.05;2.70;;;5.60;94.90;;;;;;5133466;27;20038;-75
2021/12/03 14:05:50;;;;;;;11.85;3.95;;;5.60;95.10;;;;;;5133573;27;20061;-74
2021/12/03 14:08:39;;;;;;;10.60;3.72;;;5.60;95.10;;;;;;5131883;27;20080;-73
2021/12/03 14:29:55;;;;;;;9.73;3.67;;;5.60;95.20;;;;;;5132382;28;20122;-73
2021/12/03 14:36:40;;;;;;;9.18;3.72;;;5.70;95.00;;;;;;5129511;28;20038;-76
2021/12/03 14:44:25;;;;;;;9.05;3.60;;;5.80;94.90;;;;;;5128482;28;20039;-73
2021/12/03 14:55:45;;;;;;;11.88;4.20;;;5.80;94.80;;;;;;5107686;27;20050;-73
2021/12/03 14:58:15;;;;;;;6.20;3.22;;;5.80;94.80;;;;;;5133193;27;20465;-73
2021/12/03 15:08:36;;;;;;;8.95;3.65;;;5.90;94.60;;;;;;5131335;27;20041;-72
2021/12/03 15:56:35;;;;;;;10.77;4.10;;;6.30;94.90;;;;;;5131680;27;20033;-72
2021/12/03 16:04:28;;;;;;;6.13;3.88;;;6.30;95.10;;;;;;5135822;27;20042;-70
2021/12/03 16:07:03;;;;;;;6.30;3.60;;;6.30;95.10;;;;;;5119871;27;20490;-72
2021/12/03 16:12:28;;;;;;;8.13;4.22;;;6.30;95.10;;;;;;5135603;27;20037;-71
2021/12/03 16:20:18;;;;;;;8.43;4.10;;;6.40;95.10;;;;;;5133667;27;20102;-72
2021/12/03 16:23:49;;;;;;;5.57;3.67;;;6.40;95.10;;;;;;5132050;27;20020;-72
2021/12/03 16:26:02;;;;;;;4.38;3.47;;;6.40;95.10;;;;;;5113161;27;20092;-72
2021/12/03 16:45:19;;;;;;;5.32;3.78;;;6.40;95.40;;;;;;5134134;27;20452;-73
2021/12/03 16:52:44;;;;;;;5.68;3.85;;;6.40;95.50;;;;;;5133231;27;20479;-72
2021/12/03 16:55:10;;;;;;;5.70;4.07;;;6.40;95.60;;;;;;5133480;27;20031;-72
2021/12/03 16:57:36;;;;;;;4.95;3.88;;;6.40;95.70;;;;;;5123947;27;20043;-73
2021/12/03 17:00:17;;;;;;;6.90;4.07;;;6.40;95.70;;;;;;5119586;27;20685;-72
2021/12/03 17:02:47;;;;;;;5.15;3.53;;;6.40;95.60;;;;;;5120548;27;20474;-72
2021/12/03 17:05:52;;;;;;;6.57;4.43;;;6.40;95.70;;;;;;5129575;27;20031;-72
2021/12/03 17:08:30;;;;;;;6.45;4.18;;;6.50;95.70;;;;;;5129322;27;20454;-72
2021/12/03 17:16:22;;;;;;;7.18;4.80;;;6.40;95.70;;;;;;5132705;27;20019;-72
2021/12/03 17:58:28;;;;;;;6.72;4.88;;;6.40;96.10;;;;;;5131891;27;20035;-73
2021/12/03 18:04:03;;;;;;;5.53;4.60;;;6.50;96.10;;;;;;5127321;27;20560;-72
2021/12/03 18:09:34;;;;;;;8.23;4.53;;;6.50;96.00;;;;;;5130358;27;20497;-73
2021/12/03 18:14:57;;;;;;;5.35;4.25;;;6.50;96.00;;;;;;5129928;28;20509;-73
2021/12/03 18:52:47;;;;;;;7.53;5.57;;;6.80;95.80;;;;;;5050583;28;20036;-72
2021/12/03 18:55:35;;;;;;;7.97;6.13;;;6.80;95.80;;;;;;5126567;27;20031;-73
2021/12/03 18:58:04;;;;;;;7.05;5.22;;;6.80;95.80;;;;;;5131692;27;20031;-73
2021/12/03 19:00:32;;;;;;;6.90;5.28;;;6.80;95.70;;;;;;5122631;27;20031;-73
2021/12/03 19:03:04;;;;;;;7.63;4.95;;;6.80;95.70;;;;;;5132314;27;20503;-69
2021/12/03 19:08:08;;;;;;;7.82;5.50;;;6.90;95.70;;;;;;5122680;27;20043;-72
2021/12/03 19:10:38;;;;;;;8.25;5.18;;;6.80;95.70;;;;;;5133260;27;20023;-69
2021/12/03 19:13:10;;;;;;;9.10;6.35;;;6.90;95.70;;;;;;5131869;27;20050;-73
2021/12/03 19:15:37;;;;;;;8.77;6.20;;;6.90;95.70;;;;;;5132400;27;20023;-72
2021/12/03 19:18:03;;;;;;;7.97;6.18;;;6.90;95.60;;;;;;5119969;27;20049;-72
2021/12/03 19:20:33;;;;;;;12.55;7.00;;;6.90;95.70;;;;;;5131256;27;20030;-72
2021/12/03 19:22:59;;;;;;;9.45;6.43;;;6.90;95.70;;;;;;5126392;27;20031;-72
2021/12/03 19:25:25;;;;;;;11.05;7.20;;;6.90;95.70;;;;;;5127007;27;20036;-72
2021/12/03 19:27:51;;;;;;;8.68;6.18;;;6.90;95.70;;;;;;5130897;27;20398;-72
2021/12/03 19:30:17;;;;;;;10.30;6.30;;;6.90;95.70;;;;;;5129118;27;20023;-73
2021/12/03 19:32:43;;;;;;;8.93;6.40;;;7.00;95.70;;;;;;5130380;27;20023;-72
2021/12/03 19:35:09;;;;;;;11.02;7.85;;;6.90;95.70;;;;;;5132472;27;20053;-72
2021/12/03 19:37:36;;;;;;;9.15;6.75;;;7.00;95.70;;;;;;5132403;27;20118;-72
2021/12/03 19:40:06;;;;;;;10.50;5.25;;;7.00;95.60;;;;;;5132288;27;20041;-72
2021/12/03 19:45:19;;;;;;;9.88;6.95;;;7.00;95.60;;;;;;5131743;27;20046;-73
2021/12/03 19:47:59;;;;;;;10.57;7.63;;;7.00;95.60;;;;;;5132413;27;20123;-73
2021/12/03 19:50:34;;;;;;;9.40;6.78;;;7.10;95.60;;;;;;5132780;27;20027;-73
2021/12/03 19:53:26;;;;;;;13.57;9.32;;;7.00;95.60;;;;;;5130483;27;20019;-72
2021/12/03 19:55:52;;;;;;;13.57;9.32;;;7.10;95.60;;;;;;5132163;27;20056;-73
2021/12/03 19:58:20;;;;;;;14.43;9.23;;;7.10;95.60;;;;;;5131616;27;20020;-73
2021/12/03 20:00:46;;;;;;;12.48;8.27;;;7.10;95.60;;;;;;5129734;27;20150;-73
2021/12/03 20:03:12;;;;;;;12.35;7.68;;;7.00;95.60;;;;;;5133177;27;20374;-72
2021/12/03 20:05:39;;;;;;;14.57;9.15;;;7.10;95.60;;;;;;5132085;27;20035;-73
2021/12/03 20:08:06;;;;;;;14.10;8.98;;;7.10;95.60;;;;;;5132354;27;20039;-73
2021/12/03 20:10:37;;;;;;;13.15;8.82;;;7.10;95.50;;;;;;5133499;27;20386;-73
2021/12/03 20:13:06;;;;;;;14.55;8.57;;;7.10;95.50;;;;;;5132549;27;20038;-72
2021/12/03 20:15:41;;;;;;;16.85;9.75;;;7.10;95.50;;;;;;5133588;27;20039;-73
2021/12/03 20:20:32;;;;;;;19.23;11.20;;;7.20;95.50;;;;;;5131889;27;20152;-73
2021/12/03 20:26:08;;;;;;;17.85;12.23;;;7.20;95.50;;;;;;5132303;27;20423;-73
2021/12/03 20:31:05;;;;;;;17.75;11.18;;;7.10;95.50;;;;;;5132593;27;20462;-72
2021/12/03 20:33:51;;;;;;;18.13;10.77;;;7.20;95.60;;;;;;5129540;27;20482;-73
2021/12/03 20:38:50;;;;;;;18.27;11.65;;;7.20;95.60;;;;;;5133181;27;20023;-73
2021/12/03 20:41:27;;;;;;;16.17;9.45;;;7.20;95.60;;;;;;5131065;27;20035;-72
2021/12/03 20:46:56;;;;;;;15.48;8.90;;;7.20;95.50;;;;;;5130547;27;20065;-73